Time;durP1;ratioP1;P1;durP2;ratioP2;P2;SDS_P1;SDS_P2;PMS_P1;PMS_P2;Temp;Humidity;BMP_temperature;BMP_pressure;BME280_temperature;BME280_humidity;BME280_pressure;Samples;Min_cycle;Max_cycle;Signal;HPM_P1;HPM_P2
2021/11/30 00:01:44;;;;;;;12.23;10.30;;;;;;;9.28;69.82;98702.10;1821731;78;20927;-82
2021/11/30 00:04:13;;;;;;;11.83;8.60;;;;;;;9.24;69.80;98707.73;1821504;78;21005;-82
2021/11/30 00:06:41;;;;;;;11.45;9.83;;;;;;;9.18;69.82;98706.48;1821519;78;20876;-82
2021/11/30 00:11:50;;;;;;;10.45;8.45;;;;;;;9.10;69.96;98703.67;1771255;78;21390;-82
2021/11/30 00:14:17;;;;;;;10.68;8.48;;;;;;;9.05;69.89;98718.94;1823255;78;20840;-82
2021/11/30 00:16:44;;;;;;;13.20;10.55;;;;;;;9.00;69.83;98728.44;1823481;78;20903;-82
2021/11/30 00:19:10;;;;;;;11.18;8.80;;;;;;;8.94;69.90;98727.67;1821919;78;20871;-80
2021/11/30 00:21:38;;;;;;;15.48;11.08;;;;;;;8.90;70.01;98732.80;1821838;78;21026;-81
2021/11/30 00:24:05;;;;;;;12.25;10.85;;;;;;;8.84;70.16;98739.84;1821748;78;21007;-81
2021/11/30 00:26:33;;;;;;;12.47;9.58;;;;;;;8.78;70.41;98746.88;1821740;78;20915;-83
2021/11/30 00:29:00;;;;;;;13.32;9.65;;;;;;;8.75;70.58;98758.41;1789733;78;20887;-83
2021/11/30 00:31:27;;;;;;;10.43;8.40;;;;;;;8.71;70.80;98762.23;1822065;78;21417;-82
2021/11/30 00:33:54;;;;;;;11.45;7.95;;;;;;;8.68;70.97;98760.70;1821696;78;21068;-83
2021/11/30 00:36:20;;;;;;;12.23;8.48;;;;;;;8.66;71.29;98770.94;1821850;78;20872;-83
2021/11/30 00:38:47;;;;;;;10.80;7.85;;;;;;;8.62;71.36;98772.95;1821528;78;20871;-81
2021/11/30 00:41:14;;;;;;;9.43;8.48;;;;;;;8.61;71.51;98779.64;1821829;78;20935;-82
2021/11/30 00:43:41;;;;;;;11.70;9.55;;;;;;;8.59;71.56;98788.08;1821496;78;20912;-81
2021/11/30 00:46:16;;;;;;;10.30;9.10;;;;;;;8.54;71.42;98794.13;1821818;78;21547;-80
2021/11/30 00:48:37;;;;;;;12.70;10.08;;;;;;;8.47;71.37;98806.41;1820632;78;20887;-81
2021/11/30 00:51:12;;;;;;;11.08;9.98;;;;;;;8.43;71.29;98815.44;1822871;78;20912;-81
2021/11/30 00:53:39;;;;;;;11.40;8.48;;;;;;;8.39;71.26;98828.83;1822638;78;20916;-82
2021/11/30 00:56:07;;;;;;;11.63;8.50;;;;;;;8.33;71.27;98824.09;1821698;78;20904;-81
2021/11/30 00:58:34;;;;;;;9.23;7.67;;;;;;;8.27;71.45;98827.55;1822503;78;20864;-81
2021/11/30 01:01:01;;;;;;;9.25;7.50;;;;;;;8.26;71.46;98834.19;1821753;78;20912;-81
2021/11/30 01:03:28;;;;;;;9.50;7.97;;;;;;;8.23;71.41;98832.66;1821420;78;20876;-81
2021/11/30 01:05:55;;;;;;;10.72;7.90;;;;;;;8.23;71.16;98847.02;1821516;78;20919;-82
2021/11/30 01:08:22;;;;;;;8.23;7.37;;;;;;;8.19;71.05;98845.59;1821527;78;20962;-81
2021/11/30 01:10:49;;;;;;;8.33;7.50;;;;;;;8.18;71.04;98853.55;1821634;78;21480;-82
2021/11/30 01:13:16;;;;;;;8.80;7.72;;;;;;;8.15;71.04;98864.23;1822066;78;20986;-81
2021/11/30 01:15:45;;;;;;;8.00;7.20;;;;;;;8.13;71.13;98877.40;1821705;78;21417;-81
2021/11/30 01:18:12;;;;;;;9.08;7.97;;;;;;;8.07;71.26;98881.34;1822111;78;20907;-80
2021/11/30 01:20:39;;;;;;;9.00;8.00;;;;;;;8.01;71.54;98883.11;1821693;78;20867;-79
2021/11/30 01:23:06;;;;;;;9.68;8.75;;;;;;;7.95;71.92;98890.10;1822053;78;22246;-80
2021/11/30 01:25:34;;;;;;;9.00;8.08;;;;;;;7.91;72.21;98899.11;1821526;78;20994;-81
2021/11/30 01:28:02;;;;;;;11.30;8.60;;;;;;;7.86;72.46;98899.47;1821562;78;20871;-81
2021/11/30 01:30:29;;;;;;;11.53;8.80;;;;;;;7.83;72.76;98904.11;1821365;78;20927;-80
2021/11/30 01:32:56;;;;;;;9.23;8.33;;;;;;;7.77;72.92;98921.05;1821822;78;20974;-80
2021/11/30 01:35:23;;;;;;;8.53;7.45;;;;;;;7.75;72.71;98928.64;1821592;78;21447;-80
2021/11/30 01:37:50;;;;;;;8.70;6.97;;;;;;;7.67;72.67;98945.70;1821606;78;20911;-81
2021/11/30 01:40:20;;;;;;;7.60;5.60;;;;;;;7.60;72.28;98944.95;1821590;78;21582;-81
2021/11/30 01:42:50;;;;;;;6.75;5.53;;;;;;;7.50;71.40;98948.73;1821965;78;20828;-81
2021/11/30 01:45:46;;;;;;;5.03;4.50;;;;;;;7.41;70.54;98962.45;1821712;78;20879;-79
2021/11/30 01:48:10;;;;;;;4.17;3.77;;;;;;;7.26;69.88;98963.10;1810426;78;21127;-78
2021/11/30 01:50:22;;;;;;;4.35;3.95;;;;;;;7.11;69.53;98976.77;1822827;78;21444;-82
2021/11/30 01:52:50;;;;;;;4.92;4.40;;;;;;;6.98;69.58;98982.05;1822598;78;20951;-81
2021/11/30 01:55:17;;;;;;;5.40;4.40;;;;;;;6.89;69.61;98981.86;1821880;78;20872;-81
2021/11/30 01:57:45;;;;;;;5.55;4.70;;;;;;;6.79;69.45;98986.42;1821594;78;20923;-81
2021/11/30 02:00:12;;;;;;;6.78;4.78;;;;;;;6.70;69.44;98988.85;1822417;78;21505;-81
2021/11/30 02:02:40;;;;;;;6.95;5.92;;;;;;;6.61;69.41;98992.45;1825584;78;20881;-80
2021/11/30 02:05:07;;;;;;;9.18;5.72;;;;;;;6.51;69.04;98989.30;1825000;78;21099;-81
2021/11/30 02:07:36;;;;;;;9.50;6.15;;;;;;;6.43;68.96;98998.95;1825155;78;21034;-82
2021/11/30 02:10:06;;;;;;;7.75;5.97;;;;;;;6.34;69.12;99006.09;1825064;78;20959;-82
2021/11/30 02:12:33;;;;;;;6.33;5.35;;;;;;;6.28;69.24;99002.61;1825125;78;21863;-82
2021/11/30 02:15:01;;;;;;;4.15;3.75;;;;;;;6.23;69.36;99013.33;1825134;78;20908;-81
2021/11/30 02:17:29;;;;;;;4.70;3.77;;;;;;;6.19;69.47;99019.67;1825541;78;20860;-81
2021/11/30 02:19:58;;;;;;;5.22;4.47;;;;;;;6.13;69.51;99026.11;1827401;78;21373;-81
2021/11/30 02:22:25;;;;;;;4.97;4.45;;;;;;;6.09;69.57;99037.69;1825676;78;20903;-78
2021/11/30 02:24:52;;;;;;;4.90;4.42;;;;;;;6.05;69.47;99035.38;1825500;78;21783;-81
2021/11/30 02:27:19;;;;;;;5.15;4.65;;;;;;;5.98;69.63;99040.15;1824993;78;20924;-80
2021/11/30 02:29:46;;;;;;;5.15;4.62;;;;;;;5.91;69.79;99044.89;1825296;78;20883;-81
2021/11/30 02:32:13;;;;;;;5.87;5.28;;;;;;;5.86;69.85;99046.97;1824829;78;20927;-81
2021/11/30 02:34:41;;;;;;;8.28;6.17;;;;;;;5.78;69.60;99034.48;1825012;78;20856;-82
2021/11/30 02:37:11;;;;;;;6.53;5.87;;;;;;;5.73;69.63;99052.14;1825229;78;21337;-80
2021/11/30 02:39:37;;;;;;;7.90;5.90;;;;;;;5.68;69.67;99054.69;1824916;78;20986;-79
2021/11/30 02:42:05;;;;;;;9.45;6.55;;;;;;;5.61;69.69;99061.58;1825997;78;20931;-79
2021/11/30 02:44:34;;;;;;;8.20;6.53;;;;;;;5.53;69.72;99063.83;1826003;78;20899;-80
2021/11/30 02:47:05;;;;;;;8.68;6.95;;;;;;;5.48;69.80;99067.67;1825189;78;20912;-82
2021/11/30 02:49:35;;;;;;;7.67;6.60;;;;;;;5.39;69.96;99071.22;1825353;78;21805;-81
2021/11/30 02:52:08;;;;;;;8.20;7.40;;;;;;;5.29;69.92;99064.09;1825246;78;20915;-81
2021/11/30 02:54:37;;;;;;;7.92;7.22;;;;;;;5.19;70.09;99071.66;1824965;78;20926;-80
2021/11/30 02:57:06;;;;;;;7.60;6.08;;;;;;;5.14;70.14;99082.34;1825383;78;20891;-80
2021/11/30 02:59:36;;;;;;;6.60;6.00;;;;;;;5.12;70.15;99065.18;1824975;78;21013;-80
2021/11/30 03:02:09;;;;;;;8.28;6.53;;;;;;;5.11;70.47;99079.94;1825040;77;21117;-80
2021/11/30 03:04:35;;;;;;;6.90;6.17;;;;;;;5.12;70.61;99078.17;1825172;77;20927;-80
2021/11/30 03:07:03;;;;;;;8.10;7.30;;;;;;;5.13;70.67;99082.42;1825000;77;20935;-80
2021/11/30 03:09:30;;;;;;;8.38;7.53;;;;;;;5.17;70.65;99091.70;1825010;77;21401;-80
2021/11/30 03:11:57;;;;;;;9.13;7.30;;;;;;;5.19;70.56;99087.24;1825423;78;20895;-80
2021/11/30 03:14:25;;;;;;;7.30;6.60;;;;;;;5.19;70.52;99075.08;1825146;78;21950;-80
2021/11/30 03:16:52;;;;;;;8.05;6.75;;;;;;;5.17;70.46;99085.20;1825071;78;20947;-80
2021/11/30 03:19:19;;;;;;;8.13;7.33;;;;;;;5.11;70.35;99073.89;1825508;77;20899;-78
2021/11/30 03:21:47;;;;;;;6.78;6.08;;;;;;;5.05;70.21;99076.89;1797875;78;20927;-81
2021/11/30 03:24:15;;;;;;;7.37;6.62;;;;;;;5.00;70.21;99073.25;1824917;78;21412;-80
2021/11/30 03:26:42;;;;;;;8.60;7.10;;;;;;;4.96;70.12;99084.78;1825574;78;21473;-81
2021/11/30 03:29:09;;;;;;;8.90;6.70;;;;;;;4.90;70.22;99087.28;1825157;78;20907;-81
2021/11/30 03:34:05;;;;;;;6.80;6.12;;;;;;;4.82;70.17;99087.37;1825157;78;20934;-82
2021/11/30 03:36:34;;;;;;;7.50;6.55;;;;;;;4.77;69.91;99103.23;1826557;78;20887;-80
2021/11/30 03:39:06;;;;;;;7.83;7.03;;;;;;;4.71;69.90;99101.86;1827087;77;21358;-81
2021/11/30 03:41:33;;;;;;;8.83;6.65;;;;;;;4.65;70.04;99100.92;1825566;77;20975;-82
2021/11/30 03:44:01;;;;;;;8.55;6.75;;;;;;;4.61;70.03;99107.70;1826198;78;20875;-81
2021/11/30 03:46:30;;;;;;;7.25;6.55;;;;;;;4.56;70.01;99113.16;1825181;78;20938;-80
2021/11/30 03:48:57;;;;;;;12.40;6.45;;;;;;;4.52;69.83;99106.02;1825872;78;20955;-81
2021/11/30 03:51:24;;;;;;;8.70;6.53;;;;;;;4.49;69.79;99128.27;1825736;77;21489;-82
2021/11/30 03:53:51;;;;;;;7.58;6.87;;;;;;;4.47;69.95;99135.31;1825103;77;20828;-82
2021/11/30 03:56:18;;;;;;;8.18;6.65;;;;;;;4.46;70.16;99147.89;1825710;78;21342;-82
2021/11/30 03:58:45;;;;;;;9.03;6.35;;;;;;;4.45;70.25;99159.22;1825562;77;20971;-82
2021/11/30 04:01:12;;;;;;;9.65;6.95;;;;;;;4.47;69.92;99163.00;1823661;77;20871;-81
2021/11/30 04:03:41;;;;;;;10.13;7.90;;;;;;;4.45;69.42;99176.56;1821902;78;21135;-82
2021/11/30 04:06:08;;;;;;;7.90;7.03;;;;;;;4.43;69.49;99176.64;1821626;78;20923;-82
2021/11/30 04:08:37;;;;;;;9.13;6.47;;;;;;;4.42;69.38;99181.44;1821745;78;20872;-82
2021/11/30 04:11:03;;;;;;;6.67;6.08;;;;;;;4.39;69.29;99185.98;1821782;78;20963;-82
2021/11/30 04:13:30;;;;;;;9.18;6.97;;;;;;;4.35;69.27;99189.21;1821912;78;20868;-82
2021/11/30 04:15:58;;;;;;;14.73;7.47;;;;;;;4.35;69.24;99201.72;1821914;78;21125;-82
2021/11/30 04:18:26;;;;;;;7.78;5.83;;;;;;;4.35;69.25;99204.78;1821802;78;20927;-81
2021/11/30 04:20:53;;;;;;;7.50;6.30;;;;;;;4.35;69.20;99206.91;1821967;78;20966;-80
2021/11/30 04:23:20;;;;;;;6.97;5.78;;;;;;;4.36;69.36;99209.89;1822178;78;20926;-79
2021/11/30 04:25:47;;;;;;;8.48;6.47;;;;;;;4.39;69.17;99217.97;1822134;78;20978;-81
2021/11/30 04:28:14;;;;;;;12.15;7.55;;;;;;;4.44;69.16;99216.40;1821982;78;21193;-82
2021/11/30 04:30:41;;;;;;;11.78;7.17;;;;;;;4.49;69.02;99223.45;1822901;78;20867;-80
2021/11/30 04:33:09;;;;;;;7.30;6.60;;;;;;;4.50;68.71;99232.45;1823842;78;20903;-82
2021/11/30 04:35:36;;;;;;;9.30;7.28;;;;;;;4.49;68.56;99237.30;1822357;78;21432;-80
2021/11/30 04:38:07;;;;;;;13.98;8.83;;;;;;;4.49;68.59;99242.48;1824658;77;20912;-81
2021/11/30 04:40:34;;;;;;;9.25;8.35;;;;;;;4.48;68.57;99247.75;1823869;77;21150;-79
2021/11/30 04:43:01;;;;;;;9.88;8.63;;;;;;;4.46;68.44;99248.30;1821481;78;20880;-79
2021/11/30 04:45:49;;;;;;;12.40;8.80;;;;;;;4.42;68.55;99259.77;1821832;78;20919;-81
2021/11/30 04:48:00;;;;;;;10.82;7.97;;;;;;;4.42;68.54;99245.50;1817474;78;21009;-79
2021/11/30 04:50:32;;;;;;;8.55;7.00;;;;;;;4.46;68.63;99253.48;1821614;78;21496;-80
2021/11/30 04:52:58;;;;;;;11.20;8.53;;;;;;;4.49;68.85;99241.63;1821366;78;21888;-80
2021/11/30 04:55:27;;;;;;;15.65;10.05;;;;;;;4.53;68.97;99242.66;1821629;78;20888;-80
2021/11/30 04:58:00;;;;;;;10.85;9.13;;;;;;;4.59;68.99;99249.73;1821783;78;20887;-80
2021/11/30 05:00:28;;;;;;;9.08;7.40;;;;;;;4.63;68.81;99252.06;1821533;78;20959;-80
2021/11/30 05:02:55;;;;;;;7.97;7.17;;;;;;;4.65;68.56;99242.44;1821716;78;20923;-80
2021/11/30 05:05:22;;;;;;;12.05;9.45;;;;;;;4.66;68.32;99245.86;1821582;78;21136;-80
2021/11/30 05:07:49;;;;;;;8.60;7.75;;;;;;;4.62;68.02;99257.34;1821565;78;20922;-81
2021/11/30 05:10:18;;;;;;;11.45;8.85;;;;;;;4.56;67.87;99257.24;1821463;78;20995;-80
2021/11/30 05:12:46;;;;;;;10.50;7.92;;;;;;;4.52;67.79;99281.70;1821567;78;20931;-82
2021/11/30 05:15:13;;;;;;;11.68;6.70;;;;;;;4.46;67.79;99285.47;1821789;78;21349;-80
2021/11/30 05:17:41;;;;;;;7.37;6.45;;;;;;;4.40;67.68;99273.30;1821601;78;21112;-81
2021/11/30 05:20:09;;;;;;;9.13;7.70;;;;;;;4.37;67.54;99265.22;1821339;78;20872;-80
2021/11/30 05:22:37;;;;;;;11.25;8.25;;;;;;;4.36;67.52;99260.50;1821918;78;20970;-82
2021/11/30 05:25:07;;;;;;;10.45;8.05;;;;;;;4.33;67.73;99255.47;1822179;78;20899;-80
2021/11/30 05:27:43;;;;;;;10.08;8.03;;;;;;;4.30;67.81;99256.12;1823291;78;20939;-81
2021/11/30 05:30:14;;;;;;;11.55;9.93;;;;;;;4.27;67.91;99253.67;1820767;78;21953;-82
2021/11/30 05:32:41;;;;;;;11.33;9.30;;;;;;;4.21;68.09;99253.58;1821815;78;20911;-80
2021/11/30 05:35:08;;;;;;;10.23;8.33;;;;;;;4.19;68.26;99259.31;1821531;78;21448;-80
2021/11/30 05:37:36;;;;;;;11.22;9.08;;;;;;;4.13;68.25;99266.12;1821500;78;21476;-80
2021/11/30 05:40:05;;;;;;;10.00;8.63;;;;;;;4.03;68.37;99268.41;1821451;78;21022;-79
2021/11/30 05:42:33;;;;;;;10.70;8.43;;;;;;;3.97;68.73;99271.32;1821741;78;21580;-80
2021/11/30 05:45:00;;;;;;;10.88;9.75;;;;;;;3.89;68.94;99281.27;1821594;78;20872;-82
2021/11/30 05:47:27;;;;;;;20.55;9.98;;;;;;;3.81;69.02;99281.70;1821605;78;21472;-81
2021/11/30 05:49:54;;;;;;;9.25;8.10;;;;;;;3.84;69.14;99292.36;1821712;78;20991;-80
2021/11/30 05:52:21;;;;;;;11.05;8.63;;;;;;;3.82;69.37;99288.54;1821511;78;21317;-82
2021/11/30 05:54:48;;;;;;;10.20;8.30;;;;;;;3.81;69.62;99293.36;1821663;78;22119;-81
2021/11/30 05:57:18;;;;;;;11.93;8.43;;;;;;;3.82;69.77;99296.78;1821622;78;20927;-82
2021/11/30 05:59:45;;;;;;;12.90;8.58;;;;;;;3.81;69.74;99296.42;1790200;78;20891;-83
2021/11/30 06:02:12;;;;;;;11.83;9.13;;;;;;;3.80;69.69;99304.67;1823608;78;20891;-82
2021/11/30 06:04:39;;;;;;;18.52;10.20;;;;;;;3.78;69.69;99311.69;1824979;78;21412;-81
2021/11/30 06:07:06;;;;;;;11.85;10.10;;;;;;;3.73;69.67;99318.85;1825614;78;21090;-81
2021/11/30 06:09:33;;;;;;;11.68;9.50;;;;;;;3.67;69.71;99315.31;1824569;78;21562;-79
2021/11/30 06:12:01;;;;;;;11.08;9.53;;;;;;;3.58;69.85;99324.41;1825241;78;20931;-81
2021/11/30 06:14:28;;;;;;;12.78;9.03;;;;;;;3.53;70.01;99321.19;1825731;77;21345;-80
2021/11/30 06:16:56;;;;;;;9.50;7.58;;;;;;;3.46;70.12;99320.67;1825989;77;20978;-79
2021/11/30 06:19:22;;;;;;;10.72;7.33;;;;;;;3.43;70.23;99315.66;1826719;78;21118;-79
2021/11/30 06:21:51;;;;;;;9.48;7.17;;;;;;;3.43;70.31;99310.94;1825605;77;20891;-75
2021/11/30 06:24:18;;;;;;;10.23;7.78;;;;;;;3.41;70.33;99310.18;1825968;77;21329;-80
2021/11/30 06:26:48;;;;;;;9.23;8.30;;;;;;;3.42;70.40;99321.73;1825276;77;20911;-80
2021/11/30 06:29:14;;;;;;;9.23;7.45;;;;;;;3.43;70.28;99318.25;1825227;77;21115;-81
2021/11/30 06:31:41;;;;;;;10.53;8.45;;;;;;;3.43;70.26;99317.42;1825240;78;21397;-81
2021/11/30 06:34:08;;;;;;;13.35;8.10;;;;;;;3.39;70.01;99319.31;1825297;77;20840;-80
2021/11/30 06:36:35;;;;;;;7.80;7.10;;;;;;;3.37;70.13;99322.44;1825121;78;21045;-82
2021/11/30 06:39:04;;;;;;;10.90;8.00;;;;;;;3.32;70.09;99321.85;1825453;77;21321;-80
2021/11/30 06:41:31;;;;;;;9.75;7.65;;;;;;;3.34;70.14;99312.72;1825249;77;20871;-80
2021/11/30 06:43:59;;;;;;;11.10;7.60;;;;;;;3.37;70.28;99314.67;1825152;78;21257;-80
2021/11/30 06:46:26;;;;;;;8.60;6.83;;;;;;;3.42;70.39;99333.40;1825484;78;20931;-79
2021/11/30 06:48:53;;;;;;;9.18;7.10;;;;;;;3.48;70.18;99340.03;1825480;77;21025;-81
2021/11/30 06:51:20;;;;;;;17.17;9.78;;;;;;;3.52;69.98;99336.38;1825126;77;21503;-80
2021/11/30 06:53:46;;;;;;;12.07;8.23;;;;;;;3.54;69.79;99341.02;1825283;77;20946;-80
2021/11/30 06:56:13;;;;;;;9.58;7.08;;;;;;;3.57;69.58;99340.02;1825066;77;21964;-81
2021/11/30 06:58:41;;;;;;;8.75;7.37;;;;;;;3.57;69.37;99334.38;1825069;77;21053;-79
2021/11/30 07:01:09;;;;;;;9.15;7.17;;;;;;;3.56;69.17;99331.42;1825397;78;21409;-80
2021/11/30 07:03:37;;;;;;;10.98;8.63;;;;;;;3.54;69.18;99335.84;1825695;78;20876;-78
2021/11/30 07:06:20;;;;;;;11.73;8.88;;;;;;;3.54;69.23;99334.55;1825244;78;20955;-78
2021/11/30 07:08:49;;;;;;;9.78;6.87;;;;;;;3.57;69.05;99336.13;1824135;78;21100;-80
2021/11/30 07:11:53;;;;;;;8.73;7.62;;;;;;;3.59;68.79;99340.32;1825247;78;21410;-81
2021/11/30 07:13:43;;;;;;;10.63;7.58;;;;;;;3.62;68.84;99347.09;1815959;78;20962;-79
2021/11/30 07:16:10;;;;;;;8.98;7.62;;;;;;;3.64;68.77;99349.98;1826405;78;20928;-83
2021/11/30 07:18:37;;;;;;;9.40;7.17;;;;;;;3.64;68.25;99346.09;1825449;78;21468;-82
2021/11/30 07:21:04;;;;;;;9.38;7.28;;;;;;;3.72;68.13;99358.67;1824878;78;21152;-80
2021/11/30 07:23:32;;;;;;;9.78;7.80;;;;;;;3.77;68.02;99362.32;1825158;78;20864;-79
2021/11/30 07:25:59;;;;;;;11.43;7.47;;;;;;;3.79;67.86;99366.50;1825233;78;20876;-84
2021/11/30 07:28:29;;;;;;;7.55;6.53;;;;;;;3.81;67.79;99381.52;1825512;78;20899;-85
2021/11/30 07:31:10;;;;;;;8.35;6.95;;;;;;;3.83;67.48;99389.23;1825205;78;20966;-80
2021/11/30 07:33:44;;;;;;;10.43;7.72;;;;;;;3.82;67.23;99382.36;1825708;78;21173;-79
2021/11/30 07:36:16;;;;;;;8.45;6.62;;;;;;;3.80;67.30;99387.64;1825182;78;20970;-79
2021/11/30 07:38:46;;;;;;;10.93;7.30;;;;;;;3.81;67.50;99396.25;1825726;78;20919;-79
2021/11/30 07:41:13;;;;;;;8.60;7.42;;;;;;;3.82;67.31;99388.84;1824965;78;21414;-79
2021/11/30 07:43:40;;;;;;;10.93;7.00;;;;;;;3.82;67.17;99403.93;1825062;78;20899;-76
2021/11/30 07:46:07;;;;;;;8.18;6.58;;;;;;;3.85;67.20;99398.60;1825083;78;21126;-80
2021/11/30 07:48:35;;;;;;;6.20;5.53;;;;;;;3.89;66.97;99388.45;1825089;78;20923;-80
2021/11/30 07:51:02;;;;;;;8.28;7.00;;;;;;;3.95;67.13;99367.83;1824870;78;20848;-78
2021/11/30 07:53:30;;;;;;;8.88;7.15;;;;;;;4.00;67.18;99366.28;1825361;78;20903;-78
2021/11/30 07:55:57;;;;;;;7.60;6.20;;;;;;;4.06;66.76;99362.08;1824783;78;21001;-78
2021/11/30 07:58:24;;;;;;;9.80;6.72;;;;;;;4.10;66.58;99360.53;1825331;78;22120;-80
2021/11/30 08:00:51;;;;;;;8.80;6.60;;;;;;;4.17;66.64;99353.25;1824972;78;20872;-80
2021/11/30 08:03:20;;;;;;;10.63;7.42;;;;;;;4.21;66.66;99347.45;1824829;78;20887;-80
2021/11/30 08:05:48;;;;;;;8.15;6.45;;;;;;;4.25;66.71;99351.55;1825727;78;20848;-80
2021/11/30 08:08:16;;;;;;;6.95;5.97;;;;;;;4.28;66.23;99348.31;1825854;78;20876;-84
2021/11/30 08:10:44;;;;;;;8.58;6.97;;;;;;;4.27;66.16;99360.06;1826124;78;20919;-80
2021/11/30 08:13:12;;;;;;;8.30;6.90;;;;;;;4.27;66.18;99350.98;1825240;78;20868;-81
2021/11/30 08:15:40;;;;;;;7.33;6.00;;;;;;;4.25;65.97;99354.98;1824969;78;20926;-76
2021/11/30 08:18:06;;;;;;;8.33;7.12;;;;;;;4.23;66.05;99358.59;1825212;78;20931;-77
2021/11/30 08:20:33;;;;;;;7.50;6.62;;;;;;;4.24;65.82;99363.67;1825394;78;21014;-80
2021/11/30 08:23:00;;;;;;;8.48;5.97;;;;;;;4.25;66.06;99368.42;1824885;78;21106;-82
2021/11/30 08:25:27;;;;;;;10.32;7.45;;;;;;;4.29;66.12;99363.41;1825373;78;21393;-79
2021/11/30 08:27:55;;;;;;;11.15;7.08;;;;;;;4.32;65.85;99357.61;1824695;78;20931;-77
2021/11/30 08:30:22;;;;;;;9.05;5.62;;;;;;;4.40;65.96;99357.64;1825167;78;20879;-76
2021/11/30 08:32:50;;;;;;;11.48;8.55;;;;;;;4.44;65.50;99359.16;1824779;78;20871;-78
2021/11/30 08:35:17;;;;;;;8.28;6.00;;;;;;;4.48;65.81;99354.17;1824941;78;21500;-78
2021/11/30 08:37:44;;;;;;;10.28;5.83;;;;;;;4.53;65.64;99353.45;1824744;78;20931;-77
2021/11/30 08:40:12;;;;;;;8.23;6.35;;;;;;;4.59;64.61;99350.52;1824995;78;21299;-77
2021/11/30 08:42:41;;;;;;;9.48;6.08;;;;;;;4.63;64.00;99354.63;1824780;78;20900;-82
2021/11/30 08:45:09;;;;;;;9.40;6.62;;;;;;;4.67;63.75;99353.54;1825092;78;20959;-80
2021/11/30 08:47:36;;;;;;;8.93;6.87;;;;;;;4.70;63.55;99352.52;1825191;78;21132;-80
2021/11/30 08:50:10;;;;;;;9.63;7.28;;;;;;;4.72;63.66;99357.17;1825335;78;20871;-81
2021/11/30 08:52:37;;;;;;;9.28;7.17;;;;;;;4.76;63.78;99361.27;1825133;78;20923;-80
2021/11/30 08:55:05;;;;;;;11.80;6.97;;;;;;;4.80;63.91;99351.06;1825280;78;20993;-81
2021/11/30 08:57:32;;;;;;;14.60;7.65;;;;;;;4.83;63.52;99357.40;1825286;78;21449;-80
2021/11/30 08:59:59;;;;;;;10.30;7.75;;;;;;;4.86;63.57;99349.89;1824973;78;21140;-82
2021/11/30 09:02:26;;;;;;;9.10;7.47;;;;;;;4.89;63.23;99352.30;1824957;78;20962;-80
2021/11/30 09:04:53;;;;;;;9.60;7.10;;;;;;;4.91;63.01;99356.52;1825341;78;21025;-79
2021/11/30 09:07:20;;;;;;;9.23;6.10;;;;;;;4.93;63.15;99348.14;1825784;78;21377;-83
2021/11/30 09:09:47;;;;;;;7.20;6.35;;;;;;;4.94;62.99;99348.53;1824935;78;20891;-81
2021/11/30 09:12:17;;;;;;;7.47;6.25;;;;;;;4.95;62.94;99353.26;1824878;78;21531;-78
2021/11/30 09:14:45;;;;;;;7.92;6.67;;;;;;;4.97;62.86;99354.84;1825282;78;20919;-81
2021/11/30 09:17:12;;;;;;;9.90;6.87;;;;;;;5.01;62.59;99341.69;1825184;78;20876;-80
2021/11/30 09:19:40;;;;;;;9.30;7.10;;;;;;;5.05;62.77;99347.92;1824989;78;20974;-77
2021/11/30 09:22:08;;;;;;;9.90;7.30;;;;;;;5.12;62.43;99341.91;1825091;78;20915;-82
2021/11/30 09:24:35;;;;;;;9.08;6.42;;;;;;;5.17;62.20;99340.70;1825015;78;21114;-79
2021/11/30 09:27:02;;;;;;;8.00;5.90;;;;;;;5.24;62.21;99333.38;1825012;78;20998;-78
2021/11/30 09:29:29;;;;;;;7.83;5.78;;;;;;;5.32;62.00;99326.45;1825480;78;20883;-80
2021/11/30 09:31:56;;;;;;;7.12;5.95;;;;;;;5.40;61.82;99326.36;1825118;78;20927;-81
2021/11/30 09:34:24;;;;;;;14.03;7.33;;;;;;;5.49;61.67;99328.02;1825112;78;21095;-79
2021/11/30 09:36:54;;;;;;;12.30;7.10;;;;;;;5.58;61.84;99322.27;1825184;78;21965;-81
2021/11/30 09:39:21;;;;;;;9.23;6.55;;;;;;;5.70;61.67;99323.31;1825173;78;20915;-80
2021/11/30 09:41:50;;;;;;;7.08;6.25;;;;;;;5.80;61.51;99325.27;1824855;78;20887;-81
2021/11/30 09:44:17;;;;;;;8.08;6.78;;;;;;;5.91;61.06;99314.17;1825247;78;20888;-79
2021/11/30 09:46:44;;;;;;;9.25;6.80;;;;;;;6.00;60.71;99307.59;1825042;78;20967;-81
2021/11/30 09:49:11;;;;;;;7.62;5.97;;;;;;;6.08;60.50;99315.77;1825293;78;21494;-80
2021/11/30 09:51:39;;;;;;;8.33;6.47;;;;;;;6.14;60.13;99308.89;1824878;78;21401;-80
2021/11/30 09:54:06;;;;;;;9.28;5.72;;;;;;;6.19;60.15;99300.31;1828028;78;20908;-83
2021/11/30 09:56:33;;;;;;;9.45;6.75;;;;;;;6.22;59.74;99307.95;1828395;78;20954;-80
2021/11/30 09:59:00;;;;;;;7.78;6.30;;;;;;;6.25;59.35;99312.12;1828687;78;21178;-79
2021/11/30 10:01:27;;;;;;;6.70;5.90;;;;;;;6.26;59.16;99312.48;1827946;78;21438;-80
2021/11/30 10:03:54;;;;;;;8.90;6.50;;;;;;;6.29;59.07;99319.25;1827982;78;20899;-80
2021/11/30 10:06:21;;;;;;;7.60;6.50;;;;;;;6.32;59.46;99308.19;1828392;77;20893;-80
2021/11/30 10:08:49;;;;;;;8.70;7.00;;;;;;;6.36;59.52;99299.25;1828110;77;20915;-78
2021/11/30 10:11:33;;;;;;;9.48;6.58;;;;;;;6.42;59.62;99300.17;1828068;77;20884;-77
2021/11/30 10:14:22;;;;;;;9.13;6.83;;;;;;;6.47;59.32;99300.31;1827565;77;21470;-79
2021/11/30 10:17:28;;;;;;;9.08;7.40;;;;;;;6.54;59.13;99287.30;1887549;75;22592;-79
2021/11/30 10:20:07;;;;;;;9.23;7.75;;;;;;;6.51;58.89;99300.49;1864438;77;20863;-78
2021/11/30 10:22:52;;;;;;;9.43;7.70;;;;;;;6.53;59.25;99308.57;1864423;76;21304;-80
2021/11/30 10:25:35;;;;;;;10.55;8.18;;;;;;;6.55;58.94;99304.58;1864374;77;20966;-79
2021/11/30 10:28:05;;;;;;;10.35;7.40;;;;;;;6.61;59.07;99313.30;1863434;77;20907;-80
2021/11/30 10:30:39;;;;;;;10.33;7.50;;;;;;;6.63;58.72;99301.84;1864692;77;20820;-81
2021/11/30 10:33:13;;;;;;;8.60;6.28;;;;;;;6.63;58.44;99307.05;1864437;77;21004;-80
2021/11/30 10:35:40;;;;;;;7.83;6.25;;;;;;;6.64;58.16;99310.48;1864438;77;21086;-81
2021/11/30 10:38:07;;;;;;;7.92;6.72;;;;;;;6.61;58.11;99302.41;1863652;77;20887;-81
2021/11/30 10:40:37;;;;;;;7.62;5.55;;;;;;;6.58;57.93;99301.77;1862781;77;20920;-80
2021/11/30 10:43:09;;;;;;;7.60;5.85;;;;;;;6.55;57.92;99303.27;1862550;77;21339;-81
2021/11/30 10:45:43;;;;;;;9.30;6.70;;;;;;;6.49;57.81;99299.75;1860174;77;20982;-80
2021/11/30 10:48:17;;;;;;;8.13;6.28;;;;;;;6.44;58.02;99300.87;1859804;77;21147;-81
2021/11/30 10:50:50;;;;;;;8.55;6.20;;;;;;;6.39;58.35;99299.52;1859486;77;20897;-81
2021/11/30 10:53:23;;;;;;;9.43;7.08;;;;;;;6.35;57.97;99300.64;1860160;77;20874;-84
2021/11/30 10:55:57;;;;;;;7.47;5.78;;;;;;;6.32;57.79;99312.57;1860902;77;20905;-81
2021/11/30 10:58:31;;;;;;;6.45;5.72;;;;;;;6.30;57.74;99307.92;1860434;77;20949;-83
2021/11/30 11:01:00;;;;;;;6.97;5.90;;;;;;;6.27;57.65;99311.56;1860581;77;21446;-81
2021/11/30 11:03:27;;;;;;;7.08;6.15;;;;;;;6.20;57.70;99311.11;1861588;77;20850;-82
2021/11/30 11:08:55;;;;;;;11.73;6.70;;;;;;;6.12;58.23;99308.14;1859441;77;21119;-80
2021/11/30 11:11:39;;;;;;;10.08;7.30;;;;;;;6.09;58.29;99308.80;1859367;77;20885;-79
2021/11/30 11:14:20;;;;;;;8.38;6.55;;;;;;;6.06;58.91;99302.02;1859362;77;21801;-78
2021/11/30 11:17:06;;;;;;;7.58;6.50;;;;;;;6.08;59.00;99307.13;1857362;76;21403;-81
2021/11/30 11:19:42;;;;;;;7.03;5.58;;;;;;;6.05;59.16;99295.59;1857818;76;20834;-80
2021/11/30 11:22:22;;;;;;;10.15;6.85;;;;;;;6.01;59.13;99299.70;1859020;77;21224;-77
2021/11/30 11:24:50;;;;;;;7.58;5.85;;;;;;;5.97;59.25;99298.22;1859155;77;20960;-78
2021/11/30 11:27:20;;;;;;;8.88;7.00;;;;;;;5.91;58.48;99282.95;1859021;77;21125;-78
2021/11/30 11:29:49;;;;;;;9.65;5.20;;;;;;;5.86;58.64;99282.88;1828591;77;21545;-78
2021/11/30 11:32:16;;;;;;;7.33;5.75;;;;;;;5.81;58.63;99282.70;1775115;77;20882;-78
2021/11/30 11:34:45;;;;;;;6.55;5.58;;;;;;;5.80;58.67;99287.55;1858374;77;21342;-80
2021/11/30 11:37:12;;;;;;;8.70;6.50;;;;;;;5.77;58.89;99282.51;1858838;76;20921;-77
2021/11/30 11:39:39;;;;;;;9.50;5.97;;;;;;;5.76;58.87;99271.75;1858375;77;21094;-78
2021/11/30 11:42:10;;;;;;;8.40;6.25;;;;;;;5.74;58.76;99273.61;1858259;76;20858;-79
2021/11/30 11:44:38;;;;;;;7.78;6.03;;;;;;;5.72;58.86;99273.34;1858350;77;21382;-80
2021/11/30 11:47:09;;;;;;;9.13;5.22;;;;;;;5.69;58.84;99270.47;1858581;77;20972;-80
2021/11/30 11:49:40;;;;;;;7.05;5.25;;;;;;;5.65;58.86;99265.08;1858617;76;20944;-76
2021/11/30 11:52:29;;;;;;;8.53;5.55;;;;;;;5.60;59.06;99256.70;1860675;76;21473;-78
2021/11/30 11:55:01;;;;;;;8.05;6.12;;;;;;;5.56;59.18;99246.14;1857069;77;21347;-82